sensor_id;sensor_type;location;lat;lon;timestamp;P1;durP1;ratioP1;P2;durP2;ratioP2
1759;SDS011;877;46.266;20.062;2024-03-02T00:01:10;35.80;;;24.93;;
1759;SDS011;877;46.266;20.062;2024-03-02T00:03:37;33.53;;;23.40;;
1759;SDS011;877;46.266;20.062;2024-03-02T00:06:04;33.70;;;23.07;;
1759;SDS011;877;46.266;20.062;2024-03-02T00:08:31;34.77;;;24.17;;
1759;SDS011;877;46.266;20.062;2024-03-02T00:10:57;33.07;;;22.67;;
1759;SDS011;877;46.266;20.062;2024-03-02T00:13:24;32.13;;;22.40;;
1759;SDS011;877;46.266;20.062;2024-03-02T00:15:54;32.60;;;20.60;;
1759;SDS011;877;46.266;20.062;2024-03-02T00:18:23;32.60;;;23.80;;
1759;SDS011;877;46.266;20.062;2024-03-02T00:20:54;32.20;;;19.50;;
1759;SDS011;877;46.266;20.062;2024-03-02T00:23:22;31.30;;;20.97;;
1759;SDS011;877;46.266;20.062;2024-03-02T00:25:48;34.50;;;23.50;;
1759;SDS011;877;46.266;20.062;2024-03-02T00:28:19;32.57;;;23.00;;
1759;SDS011;877;46.266;20.062;2024-03-02T00:33:21;30.40;;;21.63;;
1759;SDS011;877;46.266;20.062;2024-03-02T00:35:48;32.60;;;20.27;;
1759;SDS011;877;46.266;20.062;2024-03-02T00:38:14;21.87;;;14.63;;
1759;SDS011;877;46.266;20.062;2024-03-02T00:40:41;31.80;;;21.47;;
1759;SDS011;877;46.266;20.062;2024-03-02T00:43:11;28.90;;;19.97;;
1759;SDS011;877;46.266;20.062;2024-03-02T00:45:44;33.03;;;18.93;;
1759;SDS011;877;46.266;20.062;2024-03-02T00:48:10;29.10;;;19.60;;
1759;SDS011;877;46.266;20.062;2024-03-02T00:50:37;24.13;;;17.33;;
1759;SDS011;877;46.266;20.062;2024-03-02T00:53:03;26.67;;;19.80;;
1759;SDS011;877;46.266;20.062;2024-03-02T00:55:29;23.90;;;17.47;;
1759;SDS011;877;46.266;20.062;2024-03-02T00:57:55;26.43;;;20.27;;
1759;SDS011;877;46.266;20.062;2024-03-02T01:00:21;28.70;;;20.17;;
1759;SDS011;877;46.266;20.062;2024-03-02T01:02:47;27.57;;;19.20;;
1759;SDS011;877;46.266;20.062;2024-03-02T01:05:13;27.53;;;18.60;;
1759;SDS011;877;46.266;20.062;2024-03-02T01:07:40;25.93;;;18.00;;
1759;SDS011;877;46.266;20.062;2024-03-02T01:10:06;28.60;;;19.50;;
1759;SDS011;877;46.266;20.062;2024-03-02T01:12:35;26.60;;;19.10;;
1759;SDS011;877;46.266;20.062;2024-03-02T01:15:01;23.13;;;17.50;;
1759;SDS011;877;46.266;20.062;2024-03-02T01:17:29;26.30;;;19.30;;
1759;SDS011;877;46.266;20.062;2024-03-02T01:19:55;25.93;;;18.70;;
1759;SDS011;877;46.266;20.062;2024-03-02T01:22:21;25.07;;;18.27;;
1759;SDS011;877;46.266;20.062;2024-03-02T01:24:50;26.93;;;18.47;;
1759;SDS011;877;46.266;20.062;2024-03-02T01:27:17;29.30;;;20.57;;
1759;SDS011;877;46.266;20.062;2024-03-02T01:29:43;30.23;;;21.90;;
1759;SDS011;877;46.266;20.062;2024-03-02T01:32:10;30.83;;;22.07;;
1759;SDS011;877;46.266;20.062;2024-03-02T01:34:36;32.00;;;21.70;;
1759;SDS011;877;46.266;20.062;2024-03-02T01:37:02;31.70;;;21.60;;
1759;SDS011;877;46.266;20.062;2024-03-02T01:39:28;31.63;;;21.93;;
1759;SDS011;877;46.266;20.062;2024-03-02T01:41:54;29.50;;;20.93;;
1759;SDS011;877;46.266;20.062;2024-03-02T01:44:20;31.80;;;20.07;;
1759;SDS011;877;46.266;20.062;2024-03-02T01:46:46;31.27;;;22.80;;
1759;SDS011;877;46.266;20.062;2024-03-02T01:49:13;32.67;;;22.43;;
1759;SDS011;877;46.266;20.062;2024-03-02T01:51:39;33.03;;;22.87;;
1759;SDS011;877;46.266;20.062;2024-03-02T01:54:05;31.47;;;20.70;;
1759;SDS011;877;46.266;20.062;2024-03-02T01:56:31;31.87;;;19.47;;
1759;SDS011;877;46.266;20.062;2024-03-02T01:58:58;32.30;;;21.97;;
1759;SDS011;877;46.266;20.062;2024-03-02T02:01:24;32.47;;;21.77;;
1759;SDS011;877;46.266;20.062;2024-03-02T02:03:51;36.17;;;21.57;;
1759;SDS011;877;46.266;20.062;2024-03-02T02:06:18;30.87;;;22.33;;
1759;SDS011;877;46.266;20.062;2024-03-02T02:08:44;31.60;;;22.20;;
1759;SDS011;877;46.266;20.062;2024-03-02T02:11:12;33.70;;;22.43;;
1759;SDS011;877;46.266;20.062;2024-03-02T02:13:40;32.53;;;19.93;;
1759;SDS011;877;46.266;20.062;2024-03-02T02:16:06;28.00;;;19.17;;
1759;SDS011;877;46.266;20.062;2024-03-02T02:18:34;27.53;;;19.33;;
1759;SDS011;877;46.266;20.062;2024-03-02T02:21:01;30.10;;;21.87;;
1759;SDS011;877;46.266;20.062;2024-03-02T02:23:27;23.93;;;18.87;;
1759;SDS011;877;46.266;20.062;2024-03-02T02:25:53;25.63;;;19.17;;
1759;SDS011;877;46.266;20.062;2024-03-02T02:28:19;27.30;;;18.13;;
1759;SDS011;877;46.266;20.062;2024-03-02T02:30:46;24.30;;;18.87;;
1759;SDS011;877;46.266;20.062;2024-03-02T02:33:12;25.80;;;18.70;;
1759;SDS011;877;46.266;20.062;2024-03-02T02:35:38;27.30;;;18.90;;
1759;SDS011;877;46.266;20.062;2024-03-02T02:38:04;23.60;;;17.50;;
1759;SDS011;877;46.266;20.062;2024-03-02T02:40:30;22.60;;;17.40;;
1759;SDS011;877;46.266;20.062;2024-03-02T02:42:57;20.27;;;15.20;;
1759;SDS011;877;46.266;20.062;2024-03-02T02:45:25;21.77;;;16.00;;
1759;SDS011;877;46.266;20.062;2024-03-02T02:47:51;22.50;;;16.77;;
1759;SDS011;877;46.266;20.062;2024-03-02T02:50:17;23.40;;;16.50;;
1759;SDS011;877;46.266;20.062;2024-03-02T02:52:44;23.90;;;17.10;;
1759;SDS011;877;46.266;20.062;2024-03-02T02:55:12;22.67;;;17.20;;
1759;SDS011;877;46.266;20.062;2024-03-02T02:57:39;23.77;;;17.67;;
1759;SDS011;877;46.266;20.062;2024-03-02T03:00:10;25.63;;;17.60;;
1759;SDS011;877;46.266;20.062;2024-03-02T03:02:39;21.83;;;15.83;;
1759;SDS011;877;46.266;20.062;2024-03-02T03:05:07;23.27;;;16.87;;
1759;SDS011;877;46.266;20.062;2024-03-02T03:07:33;23.17;;;15.10;;
1759;SDS011;877;46.266;20.062;2024-03-02T03:10:01;26.90;;;17.13;;
1759;SDS011;877;46.266;20.062;2024-03-02T03:12:28;25.53;;;16.63;;
1759;SDS011;877;46.266;20.062;2024-03-02T03:14:54;22.50;;;15.63;;
1759;SDS011;877;46.266;20.062;2024-03-02T03:17:21;24.03;;;16.80;;
1759;SDS011;877;46.266;20.062;2024-03-02T03:19:49;23.17;;;15.27;;
1759;SDS011;877;46.266;20.062;2024-03-02T03:22:15;24.13;;;16.60;;
1759;SDS011;877;46.266;20.062;2024-03-02T03:24:41;25.67;;;17.73;;
1759;SDS011;877;46.266;20.062;2024-03-02T03:27:09;21.30;;;15.37;;
1759;SDS011;877;46.266;20.062;2024-03-02T03:29:36;24.70;;;16.87;;
1759;SDS011;877;46.266;20.062;2024-03-02T03:32:02;30.93;;;18.00;;
1759;SDS011;877;46.266;20.062;2024-03-02T03:34:32;23.13;;;16.43;;
1759;SDS011;877;46.266;20.062;2024-03-02T03:36:58;23.70;;;17.07;;
1759;SDS011;877;46.266;20.062;2024-03-02T03:39:24;22.40;;;16.40;;
1759;SDS011;877;46.266;20.062;2024-03-02T03:41:51;23.07;;;16.27;;
1759;SDS011;877;46.266;20.062;2024-03-02T03:44:17;27.00;;;15.60;;
1759;SDS011;877;46.266;20.062;2024-03-02T03:46:43;22.87;;;15.60;;
1759;SDS011;877;46.266;20.062;2024-03-02T03:49:09;21.47;;;16.03;;
1759;SDS011;877;46.266;20.062;2024-03-02T03:51:35;21.40;;;15.17;;
1759;SDS011;877;46.266;20.062;2024-03-02T03:54:01;21.80;;;16.40;;
1759;SDS011;877;46.266;20.062;2024-03-02T03:56:27;21.47;;;15.87;;
1759;SDS011;877;46.266;20.062;2024-03-02T03:58:53;22.27;;;16.40;;
1759;SDS011;877;46.266;20.062;2024-03-02T04:01:19;24.83;;;17.73;;
1759;SDS011;877;46.266;20.062;2024-03-02T04:03:47;24.00;;;16.13;;
1759;SDS011;877;46.266;20.062;2024-03-02T04:06:13;24.90;;;16.07;;
1759;SDS011;877;46.266;20.062;2024-03-02T04:08:42;25.17;;;17.57;;
1759;SDS011;877;46.266;20.062;2024-03-02T04:11:08;24.13;;;17.00;;
1759;SDS011;877;46.266;20.062;2024-03-02T04:13:36;22.67;;;15.57;;
1759;SDS011;877;46.266;20.062;2024-03-02T04:16:02;25.20;;;16.90;;
1759;SDS011;877;46.266;20.062;2024-03-02T04:18:30;26.53;;;16.60;;
1759;SDS011;877;46.266;20.062;2024-03-02T04:20:57;21.50;;;15.00;;
1759;SDS011;877;46.266;20.062;2024-03-02T04:23:24;21.27;;;15.03;;
1759;SDS011;877;46.266;20.062;2024-03-02T04:25:50;19.10;;;15.00;;
1759;SDS011;877;46.266;20.062;2024-03-02T04:28:17;27.03;;;16.30;;
1759;SDS011;877;46.266;20.062;2024-03-02T04:30:43;26.77;;;17.30;;
1759;SDS011;877;46.266;20.062;2024-03-02T04:33:10;19.60;;;15.03;;
1759;SDS011;877;46.266;20.062;2024-03-02T04:35:36;23.97;;;17.67;;
1759;SDS011;877;46.266;20.062;2024-03-02T04:38:02;23.40;;;17.03;;
1759;SDS011;877;46.266;20.062;2024-03-02T04:40:28;20.63;;;15.60;;
1759;SDS011;877;46.266;20.062;2024-03-02T04:42:55;27.80;;;16.23;;
1759;SDS011;877;46.266;20.062;2024-03-02T04:45:21;23.20;;;17.03;;
1759;SDS011;877;46.266;20.062;2024-03-02T04:47:47;25.50;;;16.50;;
1759;SDS011;877;46.266;20.062;2024-03-02T04:50:13;21.97;;;15.40;;
1759;SDS011;877;46.266;20.062;2024-03-02T04:52:39;22.20;;;16.73;;
1759;SDS011;877;46.266;20.062;2024-03-02T04:55:05;22.87;;;15.00;;
1759;SDS011;877;46.266;20.062;2024-03-02T04:57:35;25.07;;;16.33;;
1759;SDS011;877;46.266;20.062;2024-03-02T05:00:02;26.13;;;17.00;;
1759;SDS011;877;46.266;20.062;2024-03-02T05:02:32;26.13;;;18.17;;
1759;SDS011;877;46.266;20.062;2024-03-02T05:04:58;25.13;;;18.03;;
1759;SDS011;877;46.266;20.062;2024-03-02T05:07:25;27.07;;;17.60;;
1759;SDS011;877;46.266;20.062;2024-03-02T05:09:51;27.17;;;19.63;;
1759;SDS011;877;46.266;20.062;2024-03-02T05:12:17;26.77;;;17.60;;
1759;SDS011;877;46.266;20.062;2024-03-02T05:15:02;30.27;;;19.90;;
1759;SDS011;877;46.266;20.062;2024-03-02T05:17:28;25.93;;;17.40;;
1759;SDS011;877;46.266;20.062;2024-03-02T05:19:54;25.37;;;17.53;;
1759;SDS011;877;46.266;20.062;2024-03-02T05:22:20;23.67;;;17.43;;
1759;SDS011;877;46.266;20.062;2024-03-02T05:24:47;23.90;;;16.83;;
1759;SDS011;877;46.266;20.062;2024-03-02T05:27:13;22.03;;;16.17;;
1759;SDS011;877;46.266;20.062;2024-03-02T05:29:40;25.43;;;17.50;;
1759;SDS011;877;46.266;20.062;2024-03-02T05:32:07;25.77;;;17.80;;
1759;SDS011;877;46.266;20.062;2024-03-02T05:34:33;25.67;;;18.70;;
1759;SDS011;877;46.266;20.062;2024-03-02T05:37:00;27.20;;;19.70;;
1759;SDS011;877;46.266;20.062;2024-03-02T05:39:27;24.50;;;18.03;;
1759;SDS011;877;46.266;20.062;2024-03-02T05:41:55;26.67;;;18.03;;
1759;SDS011;877;46.266;20.062;2024-03-02T05:44:21;27.20;;;19.80;;
1759;SDS011;877;46.266;20.062;2024-03-02T05:46:47;23.43;;;17.30;;
1759;SDS011;877;46.266;20.062;2024-03-02T05:49:13;24.60;;;16.53;;
1759;SDS011;877;46.266;20.062;2024-03-02T05:51:39;24.43;;;17.83;;
1759;SDS011;877;46.266;20.062;2024-03-02T05:54:06;26.10;;;17.53;;
1759;SDS011;877;46.266;20.062;2024-03-02T05:56:32;23.73;;;16.33;;
1759;SDS011;877;46.266;20.062;2024-03-02T05:58:58;21.97;;;17.57;;
1759;SDS011;877;46.266;20.062;2024-03-02T06:01:33;26.70;;;17.83;;
1759;SDS011;877;46.266;20.062;2024-03-02T06:03:59;26.17;;;17.97;;
1759;SDS011;877;46.266;20.062;2024-03-02T06:06:26;28.90;;;17.90;;
1759;SDS011;877;46.266;20.062;2024-03-02T06:08:53;28.93;;;17.83;;
1759;SDS011;877;46.266;20.062;2024-03-02T06:11:19;24.27;;;17.33;;
1759;SDS011;877;46.266;20.062;2024-03-02T06:13:45;24.70;;;16.87;;
1759;SDS011;877;46.266;20.062;2024-03-02T06:16:11;23.30;;;16.77;;
1759;SDS011;877;46.266;20.062;2024-03-02T06:18:37;23.00;;;17.17;;
1759;SDS011;877;46.266;20.062;2024-03-02T06:21:04;24.17;;;17.77;;
1759;SDS011;877;46.266;20.062;2024-03-02T06:23:30;23.40;;;16.17;;
1759;SDS011;877;46.266;20.062;2024-03-02T06:25:57;24.33;;;16.70;;
1759;SDS011;877;46.266;20.062;2024-03-02T06:28:23;20.67;;;15.40;;
1759;SDS011;877;46.266;20.062;2024-03-02T06:30:49;22.13;;;15.90;;
1759;SDS011;877;46.266;20.062;2024-03-02T06:33:15;21.13;;;15.40;;
1759;SDS011;877;46.266;20.062;2024-03-02T06:35:41;23.03;;;15.20;;
1759;SDS011;877;46.266;20.062;2024-03-02T06:38:07;20.40;;;14.30;;
1759;SDS011;877;46.266;20.062;2024-03-02T06:40:33;21.13;;;15.43;;
1759;SDS011;877;46.266;20.062;2024-03-02T06:43:00;23.33;;;14.20;;
1759;SDS011;877;46.266;20.062;2024-03-02T06:45:27;25.23;;;16.80;;
1759;SDS011;877;46.266;20.062;2024-03-02T06:47:55;18.27;;;13.07;;
1759;SDS011;877;46.266;20.062;2024-03-02T06:50:21;19.40;;;14.00;;
1759;SDS011;877;46.266;20.062;2024-03-02T06:52:47;21.57;;;14.57;;
1759;SDS011;877;46.266;20.062;2024-03-02T06:55:13;17.57;;;13.70;;
1759;SDS011;877;46.266;20.062;2024-03-02T06:57:40;20.20;;;10.73;;
1759;SDS011;877;46.266;20.062;2024-03-02T07:00:07;14.70;;;11.27;;
1759;SDS011;877;46.266;20.062;2024-03-02T07:02:34;18.80;;;13.60;;
1759;SDS011;877;46.266;20.062;2024-03-02T07:05:01;16.80;;;11.73;;
1759;SDS011;877;46.266;20.062;2024-03-02T07:07:28;17.47;;;11.90;;
1759;SDS011;877;46.266;20.062;2024-03-02T07:09:54;20.53;;;12.53;;
1759;SDS011;877;46.266;20.062;2024-03-02T07:12:20;18.93;;;13.13;;
1759;SDS011;877;46.266;20.062;2024-03-02T07:14:46;14.10;;;10.87;;
1759;SDS011;877;46.266;20.062;2024-03-02T07:17:27;15.80;;;11.07;;
1759;SDS011;877;46.266;20.062;2024-03-02T07:19:53;16.37;;;12.30;;
1759;SDS011;877;46.266;20.062;2024-03-02T07:22:19;17.13;;;10.50;;
1759;SDS011;877;46.266;20.062;2024-03-02T07:24:46;13.00;;;9.20;;
1759;SDS011;877;46.266;20.062;2024-03-02T07:27:12;16.60;;;9.20;;
1759;SDS011;877;46.266;20.062;2024-03-02T07:29:39;11.60;;;8.20;;
1759;SDS011;877;46.266;20.062;2024-03-02T07:32:06;11.20;;;8.73;;
1759;SDS011;877;46.266;20.062;2024-03-02T07:34:32;13.67;;;8.67;;
1759;SDS011;877;46.266;20.062;2024-03-02T07:36:58;12.17;;;8.40;;
1759;SDS011;877;46.266;20.062;2024-03-02T07:39:24;14.90;;;8.63;;
1759;SDS011;877;46.266;20.062;2024-03-02T07:41:51;12.40;;;8.90;;
1759;SDS011;877;46.266;20.062;2024-03-02T07:44:17;12.93;;;8.80;;
1759;SDS011;877;46.266;20.062;2024-03-02T07:46:45;11.67;;;7.90;;
1759;SDS011;877;46.266;20.062;2024-03-02T07:49:17;11.50;;;8.03;;
1759;SDS011;877;46.266;20.062;2024-03-02T07:51:44;15.27;;;8.43;;
1759;SDS011;877;46.266;20.062;2024-03-02T07:54:10;15.77;;;8.53;;
1759;SDS011;877;46.266;20.062;2024-03-02T07:56:36;10.53;;;7.77;;
1759;SDS011;877;46.266;20.062;2024-03-02T07:59:03;13.33;;;7.80;;
1759;SDS011;877;46.266;20.062;2024-03-02T08:01:30;11.10;;;7.70;;
1759;SDS011;877;46.266;20.062;2024-03-02T08:04:00;14.40;;;7.80;;
1759;SDS011;877;46.266;20.062;2024-03-02T08:06:29;11.13;;;7.40;;
1759;SDS011;877;46.266;20.062;2024-03-02T08:08:56;10.57;;;7.43;;
1759;SDS011;877;46.266;20.062;2024-03-02T08:11:22;10.00;;;7.53;;
1759;SDS011;877;46.266;20.062;2024-03-02T08:13:48;11.10;;;6.97;;
1759;SDS011;877;46.266;20.062;2024-03-02T08:16:15;10.10;;;7.30;;
1759;SDS011;877;46.266;20.062;2024-03-02T08:18:45;12.27;;;8.50;;
1759;SDS011;877;46.266;20.062;2024-03-02T08:21:12;11.33;;;7.83;;
1759;SDS011;877;46.266;20.062;2024-03-02T08:23:38;13.70;;;8.20;;
1759;SDS011;877;46.266;20.062;2024-03-02T08:26:06;10.13;;;7.20;;
1759;SDS011;877;46.266;20.062;2024-03-02T08:28:32;10.00;;;7.80;;
1759;SDS011;877;46.266;20.062;2024-03-02T08:30:58;15.97;;;7.20;;
1759;SDS011;877;46.266;20.062;2024-03-02T08:33:24;10.20;;;7.30;;
1759;SDS011;877;46.266;20.062;2024-03-02T08:35:50;10.20;;;8.10;;
1759;SDS011;877;46.266;20.062;2024-03-02T08:38:19;12.20;;;8.90;;
1759;SDS011;877;46.266;20.062;2024-03-02T08:40:45;11.33;;;7.83;;
1759;SDS011;877;46.266;20.062;2024-03-02T08:43:11;10.60;;;7.40;;
1759;SDS011;877;46.266;20.062;2024-03-02T08:45:37;11.23;;;9.03;;
1759;SDS011;877;46.266;20.062;2024-03-02T08:48:05;13.00;;;8.30;;
1759;SDS011;877;46.266;20.062;2024-03-02T08:50:31;11.60;;;8.13;;
1759;SDS011;877;46.266;20.062;2024-03-02T08:52:57;10.93;;;7.33;;
1759;SDS011;877;46.266;20.062;2024-03-02T08:55:23;10.30;;;8.00;;
1759;SDS011;877;46.266;20.062;2024-03-02T08:57:49;9.70;;;6.93;;
1759;SDS011;877;46.266;20.062;2024-03-02T09:00:16;10.83;;;7.10;;
1759;SDS011;877;46.266;20.062;2024-03-02T09:02:45;9.33;;;7.23;;
1759;SDS011;877;46.266;20.062;2024-03-02T09:05:11;11.30;;;7.30;;
1759;SDS011;877;46.266;20.062;2024-03-02T09:07:37;9.30;;;6.33;;
1759;SDS011;877;46.266;20.062;2024-03-02T09:10:04;10.37;;;6.70;;
1759;SDS011;877;46.266;20.062;2024-03-02T09:12:31;10.20;;;7.13;;
1759;SDS011;877;46.266;20.062;2024-03-02T09:14:57;8.63;;;6.60;;
1759;SDS011;877;46.266;20.062;2024-03-02T09:17:25;14.50;;;9.87;;
1759;SDS011;877;46.266;20.062;2024-03-02T09:19:51;14.70;;;8.63;;
1759;SDS011;877;46.266;20.062;2024-03-02T09:22:18;17.43;;;9.23;;
1759;SDS011;877;46.266;20.062;2024-03-02T09:24:44;14.30;;;7.67;;
1759;SDS011;877;46.266;20.062;2024-03-02T09:27:10;13.00;;;8.50;;
1759;SDS011;877;46.266;20.062;2024-03-02T09:29:37;10.10;;;6.60;;
1759;SDS011;877;46.266;20.062;2024-03-02T09:32:03;14.07;;;8.87;;
1759;SDS011;877;46.266;20.062;2024-03-02T09:34:30;12.40;;;9.07;;
1759;SDS011;877;46.266;20.062;2024-03-02T09:36:56;10.70;;;7.57;;
1759;SDS011;877;46.266;20.062;2024-03-02T09:39:22;11.80;;;7.20;;
1759;SDS011;877;46.266;20.062;2024-03-02T09:41:50;12.87;;;8.67;;
1759;SDS011;877;46.266;20.062;2024-03-02T09:44:16;14.33;;;10.87;;
1759;SDS011;877;46.266;20.062;2024-03-02T09:46:43;14.33;;;10.30;;
1759;SDS011;877;46.266;20.062;2024-03-02T09:49:10;13.20;;;10.27;;
1759;SDS011;877;46.266;20.062;2024-03-02T09:51:39;13.47;;;9.83;;
1759;SDS011;877;46.266;20.062;2024-03-02T09:54:07;16.30;;;9.00;;
1759;SDS011;877;46.266;20.062;2024-03-02T09:56:33;13.53;;;9.77;;
1759;SDS011;877;46.266;20.062;2024-03-02T09:58:59;12.47;;;8.83;;
1759;SDS011;877;46.266;20.062;2024-03-02T10:01:25;12.10;;;8.27;;
1759;SDS011;877;46.266;20.062;2024-03-02T10:03:51;12.83;;;8.53;;
1759;SDS011;877;46.266;20.062;2024-03-02T10:06:22;11.20;;;8.57;;
1759;SDS011;877;46.266;20.062;2024-03-02T10:08:49;14.20;;;8.90;;
1759;SDS011;877;46.266;20.062;2024-03-02T10:14:12;14.30;;;9.00;;
1759;SDS011;877;46.266;20.062;2024-03-02T10:16:40;11.67;;;8.70;;
1759;SDS011;877;46.266;20.062;2024-03-02T10:21:53;10.23;;;6.50;;
1759;SDS011;877;46.266;20.062;2024-03-02T10:24:20;9.60;;;7.10;;
1759;SDS011;877;46.266;20.062;2024-03-02T10:26:46;9.57;;;7.10;;
1759;SDS011;877;46.266;20.062;2024-03-02T10:29:13;10.10;;;7.63;;
1759;SDS011;877;46.266;20.062;2024-03-02T10:31:41;12.30;;;8.50;;
1759;SDS011;877;46.266;20.062;2024-03-02T10:34:07;12.73;;;8.53;;
1759;SDS011;877;46.266;20.062;2024-03-02T10:36:34;15.70;;;8.87;;
1759;SDS011;877;46.266;20.062;2024-03-02T10:39:03;11.80;;;7.80;;
1759;SDS011;877;46.266;20.062;2024-03-02T10:41:37;9.90;;;7.47;;
1759;SDS011;877;46.266;20.062;2024-03-02T10:44:04;10.43;;;8.40;;
1759;SDS011;877;46.266;20.062;2024-03-02T10:46:30;11.97;;;7.70;;
1759;SDS011;877;46.266;20.062;2024-03-02T10:48:57;11.40;;;8.00;;
1759;SDS011;877;46.266;20.062;2024-03-02T10:51:26;12.50;;;8.93;;
1759;SDS011;877;46.266;20.062;2024-03-02T10:53:54;10.33;;;8.17;;
1759;SDS011;877;46.266;20.062;2024-03-02T10:56:53;13.60;;;7.87;;
1759;SDS011;877;46.266;20.062;2024-03-02T11:01:53;12.67;;;9.27;;
1759;SDS011;877;46.266;20.062;2024-03-02T11:04:19;10.20;;;7.63;;
1759;SDS011;877;46.266;20.062;2024-03-02T11:06:49;11.27;;;8.43;;
1759;SDS011;877;46.266;20.062;2024-03-02T11:09:15;14.93;;;9.43;;
1759;SDS011;877;46.266;20.062;2024-03-02T11:11:42;13.30;;;8.60;;
1759;SDS011;877;46.266;20.062;2024-03-02T11:14:13;13.67;;;10.73;;
1759;SDS011;877;46.266;20.062;2024-03-02T11:16:39;16.73;;;11.57;;
1759;SDS011;877;46.266;20.062;2024-03-02T11:19:07;13.70;;;10.00;;
1759;SDS011;877;46.266;20.062;2024-03-02T11:21:34;14.10;;;10.43;;
1759;SDS011;877;46.266;20.062;2024-03-02T11:24:27;16.77;;;11.50;;
1759;SDS011;877;46.266;20.062;2024-03-02T11:26:47;16.10;;;11.57;;
1759;SDS011;877;46.266;20.062;2024-03-02T11:32:01;14.80;;;12.60;;
1759;SDS011;877;46.266;20.062;2024-03-02T11:34:34;15.23;;;13.13;;
1759;SDS011;877;46.266;20.062;2024-03-02T11:37:00;28.37;;;25.40;;
1759;SDS011;877;46.266;20.062;2024-03-02T11:39:27;16.10;;;13.70;;
1759;SDS011;877;46.266;20.062;2024-03-02T11:41:54;38.03;;;30.10;;
1759;SDS011;877;46.266;20.062;2024-03-02T11:44:21;32.47;;;28.93;;
1759;SDS011;877;46.266;20.062;2024-03-02T11:47:00;57.87;;;49.97;;
1759;SDS011;877;46.266;20.062;2024-03-02T11:49:40;19.73;;;16.70;;
1759;SDS011;877;46.266;20.062;2024-03-02T11:52:07;42.23;;;38.33;;
1759;SDS011;877;46.266;20.062;2024-03-02T11:54:34;32.30;;;29.10;;
1759;SDS011;877;46.266;20.062;2024-03-02T11:57:01;40.53;;;36.43;;
1759;SDS011;877;46.266;20.062;2024-03-02T11:59:28;37.07;;;33.13;;
1759;SDS011;877;46.266;20.062;2024-03-02T12:01:55;14.60;;;11.90;;
1759;SDS011;877;46.266;20.062;2024-03-02T12:04:21;22.10;;;19.77;;
1759;SDS011;877;46.266;20.062;2024-03-02T12:06:48;16.17;;;12.90;;
1759;SDS011;877;46.266;20.062;2024-03-02T12:09:20;17.50;;;13.77;;
1759;SDS011;877;46.266;20.062;2024-03-02T12:11:46;21.33;;;17.13;;
1759;SDS011;877;46.266;20.062;2024-03-02T12:14:12;17.00;;;11.73;;
1759;SDS011;877;46.266;20.062;2024-03-02T12:16:38;16.87;;;14.57;;
1759;SDS011;877;46.266;20.062;2024-03-02T12:19:06;16.60;;;14.60;;
1759;SDS011;877;46.266;20.062;2024-03-02T12:21:32;15.37;;;12.80;;
1759;SDS011;877;46.266;20.062;2024-03-02T12:23:58;14.93;;;13.13;;
1759;SDS011;877;46.266;20.062;2024-03-02T12:26:25;15.90;;;14.20;;
1759;SDS011;877;46.266;20.062;2024-03-02T12:28:51;18.13;;;12.87;;
1759;SDS011;877;46.266;20.062;2024-03-02T12:31:17;17.30;;;12.37;;
1759;SDS011;877;46.266;20.062;2024-03-02T12:33:43;18.73;;;13.60;;
1759;SDS011;877;46.266;20.062;2024-03-02T12:36:09;18.87;;;13.03;;
1759;SDS011;877;46.266;20.062;2024-03-02T12:38:43;22.13;;;15.20;;
1759;SDS011;877;46.266;20.062;2024-03-02T12:41:09;24.87;;;19.47;;
1759;SDS011;877;46.266;20.062;2024-03-02T12:43:36;26.43;;;21.20;;
1759;SDS011;877;46.266;20.062;2024-03-02T12:46:04;25.57;;;20.37;;
1759;SDS011;877;46.266;20.062;2024-03-02T12:48:30;21.17;;;15.77;;
1759;SDS011;877;46.266;20.062;2024-03-02T12:50:56;23.70;;;18.00;;
1759;SDS011;877;46.266;20.062;2024-03-02T12:53:22;22.90;;;17.60;;
1759;SDS011;877;46.266;20.062;2024-03-02T12:55:50;21.93;;;17.30;;
1759;SDS011;877;46.266;20.062;2024-03-02T12:58:18;25.27;;;19.73;;
1759;SDS011;877;46.266;20.062;2024-03-02T13:00:44;25.23;;;17.93;;
1759;SDS011;877;46.266;20.062;2024-03-02T13:03:11;86.20;;;74.40;;
1759;SDS011;877;46.266;20.062;2024-03-02T13:05:38;56.87;;;51.33;;
1759;SDS011;877;46.266;20.062;2024-03-02T13:08:05;28.33;;;23.57;;
1759;SDS011;877;46.266;20.062;2024-03-02T13:10:33;20.63;;;17.37;;
1759;SDS011;877;46.266;20.062;2024-03-02T13:12:59;47.70;;;42.27;;
1759;SDS011;877;46.266;20.062;2024-03-02T13:15:26;31.43;;;19.80;;
1759;SDS011;877;46.266;20.062;2024-03-02T13:17:52;26.43;;;20.07;;
1759;SDS011;877;46.266;20.062;2024-03-02T13:20:18;24.17;;;19.33;;
1759;SDS011;877;46.266;20.062;2024-03-02T13:22:45;24.67;;;19.37;;
1759;SDS011;877;46.266;20.062;2024-03-02T13:25:11;29.77;;;23.10;;
1759;SDS011;877;46.266;20.062;2024-03-02T13:27:37;28.57;;;22.37;;
1759;SDS011;877;46.266;20.062;2024-03-02T13:30:05;34.77;;;23.00;;
1759;SDS011;877;46.266;20.062;2024-03-02T13:32:31;35.17;;;27.60;;
1759;SDS011;877;46.266;20.062;2024-03-02T13:34:57;35.90;;;24.97;;
1759;SDS011;877;46.266;20.062;2024-03-02T13:37:24;29.40;;;22.37;;
1759;SDS011;877;46.266;20.062;2024-03-02T13:39:50;27.37;;;19.27;;
1759;SDS011;877;46.266;20.062;2024-03-02T13:42:16;30.00;;;23.87;;
1759;SDS011;877;46.266;20.062;2024-03-02T13:44:45;35.17;;;26.50;;
1759;SDS011;877;46.266;20.062;2024-03-02T13:47:13;31.10;;;25.50;;
1759;SDS011;877;46.266;20.062;2024-03-02T13:49:39;33.83;;;26.20;;
1759;SDS011;877;46.266;20.062;2024-03-02T13:52:09;29.73;;;24.67;;
1759;SDS011;877;46.266;20.062;2024-03-02T13:54:42;29.27;;;24.40;;
1759;SDS011;877;46.266;20.062;2024-03-02T13:57:09;32.23;;;25.70;;
1759;SDS011;877;46.266;20.062;2024-03-02T13:59:36;32.20;;;25.43;;
1759;SDS011;877;46.266;20.062;2024-03-02T14:02:02;29.13;;;24.33;;
1759;SDS011;877;46.266;20.062;2024-03-02T14:04:32;27.33;;;24.20;;
1759;SDS011;877;46.266;20.062;2024-03-02T14:06:59;31.03;;;26.57;;
1759;SDS011;877;46.266;20.062;2024-03-02T14:09:25;31.60;;;25.20;;
1759;SDS011;877;46.266;20.062;2024-03-02T14:11:53;33.17;;;26.97;;
1759;SDS011;877;46.266;20.062;2024-03-02T14:14:19;32.40;;;24.13;;
1759;SDS011;877;46.266;20.062;2024-03-02T14:16:45;33.50;;;29.40;;
1759;SDS011;877;46.266;20.062;2024-03-02T14:19:12;48.13;;;43.07;;
1759;SDS011;877;46.266;20.062;2024-03-02T14:21:39;37.77;;;31.27;;
1759;SDS011;877;46.266;20.062;2024-03-02T14:24:05;51.37;;;43.00;;
1759;SDS011;877;46.266;20.062;2024-03-02T14:26:35;32.40;;;25.97;;
1759;SDS011;877;46.266;20.062;2024-03-02T14:29:04;44.13;;;39.30;;
1759;SDS011;877;46.266;20.062;2024-03-02T14:31:31;30.63;;;25.23;;
1759;SDS011;877;46.266;20.062;2024-03-02T14:33:57;38.03;;;31.80;;
1759;SDS011;877;46.266;20.062;2024-03-02T14:36:23;31.67;;;26.73;;
1759;SDS011;877;46.266;20.062;2024-03-02T14:38:49;34.10;;;26.63;;
1759;SDS011;877;46.266;20.062;2024-03-02T14:41:16;31.20;;;26.90;;
1759;SDS011;877;46.266;20.062;2024-03-02T14:43:42;26.53;;;22.77;;
1759;SDS011;877;46.266;20.062;2024-03-02T14:46:08;28.37;;;25.07;;
1759;SDS011;877;46.266;20.062;2024-03-02T14:48:37;29.27;;;24.00;;
1759;SDS011;877;46.266;20.062;2024-03-02T14:51:04;33.80;;;28.37;;
1759;SDS011;877;46.266;20.062;2024-03-02T14:53:30;34.33;;;27.23;;
1759;SDS011;877;46.266;20.062;2024-03-02T14:55:56;37.47;;;30.07;;
1759;SDS011;877;46.266;20.062;2024-03-02T14:58:23;49.07;;;36.73;;
1759;SDS011;877;46.266;20.062;2024-03-02T15:00:49;34.57;;;27.93;;
1759;SDS011;877;46.266;20.062;2024-03-02T15:03:15;37.67;;;29.77;;